sensor_id;sensor_type;location;lat;lon;timestamp;pressure;altitude;pressure_sealevel;temperature;humidity
30873;BME280;17579;42.690;2.586;2023-12-20T00:02:11;97681.03;;;10.62;45.80
30873;BME280;17579;42.690;2.586;2023-12-20T00:05:18;97677.66;;;10.60;45.33
30873;BME280;17579;42.690;2.586;2023-12-20T00:07:46;97673.41;;;10.69;45.29
30873;BME280;17579;42.690;2.586;2023-12-20T00:10:12;97681.06;;;10.72;45.33
30873;BME280;17579;42.690;2.586;2023-12-20T00:12:40;97674.09;;;10.71;45.58
30873;BME280;17579;42.690;2.586;2023-12-20T00:15:06;97662.91;;;10.67;45.67
30873;BME280;17579;42.690;2.586;2023-12-20T00:17:32;97657.53;;;10.69;45.84
30873;BME280;17579;42.690;2.586;2023-12-20T00:20:10;97653.34;;;10.66;45.58
30873;BME280;17579;42.690;2.586;2023-12-20T00:22:41;97652.22;;;10.69;45.79
30873;BME280;17579;42.690;2.586;2023-12-20T00:25:10;97639.25;;;10.66;45.86
30873;BME280;17579;42.690;2.586;2023-12-20T00:27:36;97651.78;;;10.64;46.00
30873;BME280;17579;42.690;2.586;2023-12-20T00:30:07;97654.00;;;10.58;45.68
30873;BME280;17579;42.690;2.586;2023-12-20T00:32:36;97659.59;;;10.65;45.83
30873;BME280;17579;42.690;2.586;2023-12-20T00:35:08;97658.19;;;10.61;45.59
30873;BME280;17579;42.690;2.586;2023-12-20T00:37:43;97638.13;;;10.58;45.86
30873;BME280;17579;42.690;2.586;2023-12-20T00:40:12;97652.72;;;10.53;45.92
30873;BME280;17579;42.690;2.586;2023-12-20T00:42:38;97642.28;;;10.51;45.59
30873;BME280;17579;42.690;2.586;2023-12-20T00:45:25;97659.84;;;10.52;45.69
30873;BME280;17579;42.690;2.586;2023-12-20T00:48:24;97673.16;;;10.41;45.46
30873;BME280;17579;42.690;2.586;2023-12-20T00:51:18;97678.16;;;10.44;45.41
30873;BME280;17579;42.690;2.586;2023-12-20T00:53:44;97674.75;;;10.53;45.85
30873;BME280;17579;42.690;2.586;2023-12-20T00:56:14;97687.97;;;10.53;46.02
30873;BME280;17579;42.690;2.586;2023-12-20T00:58:42;97689.59;;;10.45;46.14
30873;BME280;17579;42.690;2.586;2023-12-20T01:01:13;97666.78;;;10.44;46.07
30873;BME280;17579;42.690;2.586;2023-12-20T01:03:50;97674.25;;;10.38;46.16
30873;BME280;17579;42.690;2.586;2023-12-20T01:06:16;97683.19;;;10.37;46.26
30873;BME280;17579;42.690;2.586;2023-12-20T01:08:54;97677.78;;;10.49;46.41
30873;BME280;17579;42.690;2.586;2023-12-20T01:11:20;97705.09;;;10.59;47.28
30873;BME280;17579;42.690;2.586;2023-12-20T01:13:51;97693.72;;;10.68;47.52
30873;BME280;17579;42.690;2.586;2023-12-20T01:16:19;97671.16;;;10.74;47.69
30873;BME280;17579;42.690;2.586;2023-12-20T01:18:46;97687.22;;;10.82;48.22
30873;BME280;17579;42.690;2.586;2023-12-20T01:21:12;97689.28;;;10.88;49.01
30873;BME280;17579;42.690;2.586;2023-12-20T01:23:37;97660.63;;;10.94;49.57
30873;BME280;17579;42.690;2.586;2023-12-20T01:26:15;97683.34;;;10.96;49.80
30873;BME280;17579;42.690;2.586;2023-12-20T01:28:40;97687.22;;;11.02;49.28
30873;BME280;17579;42.690;2.586;2023-12-20T01:31:06;97703.81;;;11.04;49.40
30873;BME280;17579;42.690;2.586;2023-12-20T01:33:31;97694.78;;;11.06;49.71
30873;BME280;17579;42.690;2.586;2023-12-20T01:35:57;97701.34;;;11.12;49.80
30873;BME280;17579;42.690;2.586;2023-12-20T01:38:28;97707.31;;;11.14;49.79
30873;BME280;17579;42.690;2.586;2023-12-20T01:41:05;97722.78;;;11.19;50.01
30873;BME280;17579;42.690;2.586;2023-12-20T01:43:31;97724.19;;;11.23;50.19
30873;BME280;17579;42.690;2.586;2023-12-20T01:45:57;97729.91;;;11.28;49.83
30873;BME280;17579;42.690;2.586;2023-12-20T01:48:24;97724.34;;;11.31;49.80
30873;BME280;17579;42.690;2.586;2023-12-20T01:50:51;97730.03;;;11.36;50.00
30873;BME280;17579;42.690;2.586;2023-12-20T01:53:50;97719.88;;;11.41;49.87
30873;BME280;17579;42.690;2.586;2023-12-20T01:56:16;97724.75;;;11.46;50.25
30873;BME280;17579;42.690;2.586;2023-12-20T01:58:44;97724.47;;;11.49;50.39
30873;BME280;17579;42.690;2.586;2023-12-20T02:01:30;97720.84;;;11.50;49.95
30873;BME280;17579;42.690;2.586;2023-12-20T02:04:07;97729.63;;;11.60;49.98
30873;BME280;17579;42.690;2.586;2023-12-20T02:06:33;97719.59;;;11.64;50.42
30873;BME280;17579;42.690;2.586;2023-12-20T02:09:17;97721.16;;;11.67;50.01
30873;BME280;17579;42.690;2.586;2023-12-20T02:11:43;97708.16;;;11.73;50.25
30873;BME280;17579;42.690;2.586;2023-12-20T02:14:13;97712.34;;;11.76;50.23
30873;BME280;17579;42.690;2.586;2023-12-20T02:16:58;97702.00;;;11.83;50.32
30873;BME280;17579;42.690;2.586;2023-12-20T02:19:27;97697.25;;;11.86;50.04
30873;BME280;17579;42.690;2.586;2023-12-20T02:22:06;97697.53;;;11.83;49.83
30873;BME280;17579;42.690;2.586;2023-12-20T02:24:34;97700.47;;;11.90;50.10
30873;BME280;17579;42.690;2.586;2023-12-20T02:27:07;97690.97;;;11.87;49.93
30873;BME280;17579;42.690;2.586;2023-12-20T02:29:34;97691.81;;;11.88;50.03
30873;BME280;17579;42.690;2.586;2023-12-20T02:32:02;97693.91;;;11.84;49.73
30873;BME280;17579;42.690;2.586;2023-12-20T02:34:28;97698.25;;;11.85;50.13
30873;BME280;17579;42.690;2.586;2023-12-20T02:37:15;97700.03;;;11.85;50.24
30873;BME280;17579;42.690;2.586;2023-12-20T02:39:43;97713.44;;;11.83;50.06
30873;BME280;17579;42.690;2.586;2023-12-20T02:42:09;97715.41;;;11.81;49.57
30873;BME280;17579;42.690;2.586;2023-12-20T02:44:35;97707.88;;;11.76;49.69
30873;BME280;17579;42.690;2.586;2023-12-20T02:47:11;97700.63;;;11.69;49.64
30873;BME280;17579;42.690;2.586;2023-12-20T02:49:37;97711.38;;;11.67;49.89
30873;BME280;17579;42.690;2.586;2023-12-20T02:52:02;97701.19;;;11.63;49.76
30873;BME280;17579;42.690;2.586;2023-12-20T02:54:30;97692.53;;;11.60;49.92
30873;BME280;17579;42.690;2.586;2023-12-20T02:57:16;97688.78;;;11.53;49.66
30873;BME280;17579;42.690;2.586;2023-12-20T02:59:44;97680.28;;;11.59;50.33
30873;BME280;17579;42.690;2.586;2023-12-20T03:02:55;97700.22;;;11.54;50.48
30873;BME280;17579;42.690;2.586;2023-12-20T03:04:55;97689.78;;;11.52;50.48
30873;BME280;17579;42.690;2.586;2023-12-20T03:07:31;97681.13;;;11.50;50.95
30873;BME280;17579;42.690;2.586;2023-12-20T03:12:57;97681.25;;;11.49;50.50
30873;BME280;17579;42.690;2.586;2023-12-20T03:15:32;97676.38;;;11.54;50.57
30873;BME280;17579;42.690;2.586;2023-12-20T03:17:58;97675.25;;;11.56;50.54
30873;BME280;17579;42.690;2.586;2023-12-20T03:20:25;97656.59;;;11.58;50.82
30873;BME280;17579;42.690;2.586;2023-12-20T03:22:54;97659.09;;;11.59;50.66
30873;BME280;17579;42.690;2.586;2023-12-20T03:25:20;97659.91;;;11.60;50.82
30873;BME280;17579;42.690;2.586;2023-12-20T03:27:45;97654.47;;;11.61;50.83
30873;BME280;17579;42.690;2.586;2023-12-20T03:30:11;97661.47;;;11.63;51.09
30873;BME280;17579;42.690;2.586;2023-12-20T03:32:38;97662.13;;;11.65;50.75
30873;BME280;17579;42.690;2.586;2023-12-20T03:35:07;97660.06;;;11.68;50.73
30873;BME280;17579;42.690;2.586;2023-12-20T03:37:35;97656.00;;;11.74;50.99
30873;BME280;17579;42.690;2.586;2023-12-20T03:40:10;97649.84;;;11.73;50.35
30873;BME280;17579;42.690;2.586;2023-12-20T03:42:36;97651.94;;;11.79;51.06
30873;BME280;17579;42.690;2.586;2023-12-20T03:45:05;97660.88;;;11.78;50.84
30873;BME280;17579;42.690;2.586;2023-12-20T03:47:31;97653.59;;;11.81;50.79
30873;BME280;17579;42.690;2.586;2023-12-20T03:49:57;97648.16;;;11.82;50.70
30873;BME280;17579;42.690;2.586;2023-12-20T03:52:22;97657.25;;;11.79;51.01
30873;BME280;17579;42.690;2.586;2023-12-20T03:54:48;97656.69;;;11.76;50.67
30873;BME280;17579;42.690;2.586;2023-12-20T03:57:16;97653.34;;;11.74;50.77
30873;BME280;17579;42.690;2.586;2023-12-20T04:00:08;97645.28;;;11.66;50.55
30873;BME280;17579;42.690;2.586;2023-12-20T04:02:39;97643.31;;;11.68;50.52
30873;BME280;17579;42.690;2.586;2023-12-20T04:05:07;97640.94;;;11.65;50.76
30873;BME280;17579;42.690;2.586;2023-12-20T04:07:55;97636.75;;;11.62;50.67
30873;BME280;17579;42.690;2.586;2023-12-20T04:10:22;97632.16;;;11.64;50.71
30873;BME280;17579;42.690;2.586;2023-12-20T04:12:57;97618.22;;;11.62;50.91
30873;BME280;17579;42.690;2.586;2023-12-20T04:15:22;97614.75;;;11.61;51.20
30873;BME280;17579;42.690;2.586;2023-12-20T04:17:51;97610.56;;;11.59;50.92
30873;BME280;17579;42.690;2.586;2023-12-20T04:20:17;97605.69;;;11.54;51.41
30873;BME280;17579;42.690;2.586;2023-12-20T04:22:45;97593.72;;;11.50;51.55
30873;BME280;17579;42.690;2.586;2023-12-20T04:25:11;97587.59;;;11.50;51.76
30873;BME280;17579;42.690;2.586;2023-12-20T04:30:48;97585.38;;;11.45;51.80
30873;BME280;17579;42.690;2.586;2023-12-20T04:33:34;97597.38;;;11.39;51.50
30873;BME280;17579;42.690;2.586;2023-12-20T04:36:00;97598.03;;;11.51;51.89
30873;BME280;17579;42.690;2.586;2023-12-20T04:38:48;97595.53;;;11.50;51.60
30873;BME280;17579;42.690;2.586;2023-12-20T04:41:21;97587.28;;;11.63;51.66
30873;BME280;17579;42.690;2.586;2023-12-20T04:43:54;97574.56;;;11.66;51.55
30873;BME280;17579;42.690;2.586;2023-12-20T04:46:29;97577.06;;;11.68;51.60
30873;BME280;17579;42.690;2.586;2023-12-20T04:49:00;97575.41;;;11.67;51.88
30873;BME280;17579;42.690;2.586;2023-12-20T04:51:29;97571.38;;;11.63;51.99
30873;BME280;17579;42.690;2.586;2023-12-20T04:54:03;97567.72;;;11.64;51.91
30873;BME280;17579;42.690;2.586;2023-12-20T04:56:31;97560.94;;;11.61;52.01
30873;BME280;17579;42.690;2.586;2023-12-20T04:59:00;97552.97;;;11.61;51.74
30873;BME280;17579;42.690;2.586;2023-12-20T05:01:25;97561.59;;;11.63;52.37
30873;BME280;17579;42.690;2.586;2023-12-20T05:03:51;97549.75;;;11.67;52.40
30873;BME280;17579;42.690;2.586;2023-12-20T05:06:17;97548.63;;;11.70;52.45
30873;BME280;17579;42.690;2.586;2023-12-20T05:08:42;97552.81;;;11.72;52.45
30873;BME280;17579;42.690;2.586;2023-12-20T05:11:08;97556.13;;;11.74;52.63
30873;BME280;17579;42.690;2.586;2023-12-20T05:13:41;97556.97;;;11.75;52.51
30873;BME280;17579;42.690;2.586;2023-12-20T05:16:07;97560.63;;;11.74;52.84
30873;BME280;17579;42.690;2.586;2023-12-20T05:18:34;97562.56;;;11.72;52.63
30873;BME280;17579;42.690;2.586;2023-12-20T05:21:02;97548.22;;;11.65;53.22
30873;BME280;17579;42.690;2.586;2023-12-20T05:23:33;97552.84;;;11.63;53.03
30873;BME280;17579;42.690;2.586;2023-12-20T05:26:12;97554.38;;;11.65;53.56
30873;BME280;17579;42.690;2.586;2023-12-20T05:28:40;97552.69;;;11.64;53.33
30873;BME280;17579;42.690;2.586;2023-12-20T05:31:05;97553.50;;;11.65;53.38
30873;BME280;17579;42.690;2.586;2023-12-20T05:33:39;97547.13;;;11.57;53.27
30873;BME280;17579;42.690;2.586;2023-12-20T05:36:11;97539.47;;;11.54;53.40
30873;BME280;17579;42.690;2.586;2023-12-20T05:38:39;97533.50;;;11.52;53.98
30873;BME280;17579;42.690;2.586;2023-12-20T05:41:04;97537.25;;;11.50;54.48
30873;BME280;17579;42.690;2.586;2023-12-20T05:43:30;97535.28;;;11.52;54.83
30873;BME280;17579;42.690;2.586;2023-12-20T05:45:59;97542.94;;;11.55;55.02
30873;BME280;17579;42.690;2.586;2023-12-20T05:48:25;97536.22;;;11.60;55.35
30873;BME280;17579;42.690;2.586;2023-12-20T05:51:06;97543.31;;;11.70;55.60
30873;BME280;17579;42.690;2.586;2023-12-20T05:53:54;97539.94;;;11.77;55.83
30873;BME280;17579;42.690;2.586;2023-12-20T05:56:20;97533.38;;;11.82;56.03
30873;BME280;17579;42.690;2.586;2023-12-20T05:58:55;97539.34;;;11.84;55.69
30873;BME280;17579;42.690;2.586;2023-12-20T06:01:24;97542.69;;;11.86;55.63
30873;BME280;17579;42.690;2.586;2023-12-20T06:03:52;97537.41;;;11.86;56.08
30873;BME280;17579;42.690;2.586;2023-12-20T06:06:17;97546.19;;;11.96;56.40
30873;BME280;17579;42.690;2.586;2023-12-20T06:08:48;97534.16;;;12.02;56.47
30873;BME280;17579;42.690;2.586;2023-12-20T06:11:13;97540.81;;;12.06;56.48
30873;BME280;17579;42.690;2.586;2023-12-20T06:13:40;97550.47;;;12.07;56.52
30873;BME280;17579;42.690;2.586;2023-12-20T06:16:06;97535.38;;;12.07;56.34
30873;BME280;17579;42.690;2.586;2023-12-20T06:21:11;97531.97;;;12.15;57.42
30873;BME280;17579;42.690;2.586;2023-12-20T06:23:38;97536.00;;;12.19;58.06
30873;BME280;17579;42.690;2.586;2023-12-20T06:26:04;97546.16;;;12.24;57.64
30873;BME280;17579;42.690;2.586;2023-12-20T06:28:30;97547.38;;;12.29;57.89
30873;BME280;17579;42.690;2.586;2023-12-20T06:30:59;97555.34;;;12.29;57.59
30873;BME280;17579;42.690;2.586;2023-12-20T06:33:34;97549.75;;;12.33;57.42
30873;BME280;17579;42.690;2.586;2023-12-20T06:36:03;97555.00;;;12.42;58.08
30873;BME280;17579;42.690;2.586;2023-12-20T06:38:29;97573.25;;;12.45;58.30
30873;BME280;17579;42.690;2.586;2023-12-20T06:40:57;97561.81;;;12.45;58.02
30873;BME280;17579;42.690;2.586;2023-12-20T06:43:24;97560.38;;;12.51;58.25
30873;BME280;17579;42.690;2.586;2023-12-20T06:45:49;97557.28;;;12.55;58.10
30873;BME280;17579;42.690;2.586;2023-12-20T06:48:16;97559.78;;;12.57;57.81
30873;BME280;17579;42.690;2.586;2023-12-20T06:50:42;97567.84;;;12.65;57.45
30873;BME280;17579;42.690;2.586;2023-12-20T06:53:08;97572.53;;;12.71;57.68
30873;BME280;17579;42.690;2.586;2023-12-20T06:55:35;97575.88;;;12.73;57.28
30873;BME280;17579;42.690;2.586;2023-12-20T06:58:03;97584.91;;;12.80;57.16
30873;BME280;17579;42.690;2.586;2023-12-20T07:00:39;97594.25;;;12.85;56.87
30873;BME280;17579;42.690;2.586;2023-12-20T07:03:16;97602.41;;;12.91;56.84
30873;BME280;17579;42.690;2.586;2023-12-20T07:08:27;97617.78;;;12.97;56.34
30873;BME280;17579;42.690;2.586;2023-12-20T07:10:53;97615.63;;;13.01;57.07
30873;BME280;17579;42.690;2.586;2023-12-20T07:13:19;97621.91;;;13.00;57.01
30873;BME280;17579;42.690;2.586;2023-12-20T07:15:55;97632.16;;;12.95;57.17
30873;BME280;17579;42.690;2.586;2023-12-20T07:18:23;97639.31;;;12.94;57.55
30873;BME280;17579;42.690;2.586;2023-12-20T07:20:57;97637.78;;;12.92;57.96
30873;BME280;17579;42.690;2.586;2023-12-20T07:23:23;97606.34;;;12.87;57.96
30873;BME280;17579;42.690;2.586;2023-12-20T07:25:49;97627.91;;;12.84;58.20
30873;BME280;17579;42.690;2.586;2023-12-20T07:28:14;97620.78;;;12.85;58.42
30873;BME280;17579;42.690;2.586;2023-12-20T07:30:42;97637.69;;;12.83;58.28
30873;BME280;17579;42.690;2.586;2023-12-20T07:33:11;97628.75;;;12.85;58.57
30873;BME280;17579;42.690;2.586;2023-12-20T07:35:57;97636.72;;;12.85;58.55
30873;BME280;17579;42.690;2.586;2023-12-20T07:38:25;97641.31;;;12.82;58.38
30873;BME280;17579;42.690;2.586;2023-12-20T07:41:04;97645.97;;;12.80;58.52
30873;BME280;17579;42.690;2.586;2023-12-20T07:43:30;97642.44;;;12.80;59.23
30873;BME280;17579;42.690;2.586;2023-12-20T07:46:03;97650.28;;;12.81;59.12
30873;BME280;17579;42.690;2.586;2023-12-20T07:48:33;97637.28;;;12.78;59.36
30873;BME280;17579;42.690;2.586;2023-12-20T07:50:58;97651.56;;;12.77;59.45
30873;BME280;17579;42.690;2.586;2023-12-20T07:53:24;97641.25;;;12.74;59.51
30873;BME280;17579;42.690;2.586;2023-12-20T07:55:50;97643.91;;;12.74;59.55
30873;BME280;17579;42.690;2.586;2023-12-20T07:58:17;97635.25;;;12.72;59.55
30873;BME280;17579;42.690;2.586;2023-12-20T08:00:46;97599.53;;;12.67;59.29
30873;BME280;17579;42.690;2.586;2023-12-20T08:03:32;97605.75;;;12.57;59.17
30873;BME280;17579;42.690;2.586;2023-12-20T08:06:21;97595.44;;;12.54;59.12
30873;BME280;17579;42.690;2.586;2023-12-20T08:08:46;97606.72;;;12.56;59.45
30873;BME280;17579;42.690;2.586;2023-12-20T08:11:12;97612.47;;;12.52;59.55
30873;BME280;17579;42.690;2.586;2023-12-20T08:14:04;97603.13;;;12.47;59.61
30873;BME280;17579;42.690;2.586;2023-12-20T08:16:29;97607.53;;;12.39;59.86
30873;BME280;17579;42.690;2.586;2023-12-20T08:18:57;97610.63;;;12.34;60.20
30873;BME280;17579;42.690;2.586;2023-12-20T08:21:26;97599.75;;;12.27;60.01
30873;BME280;17579;42.690;2.586;2023-12-20T08:23:55;97614.97;;;12.25;60.44
30873;BME280;17579;42.690;2.586;2023-12-20T08:26:23;97620.84;;;12.19;60.34
30873;BME280;17579;42.690;2.586;2023-12-20T08:28:49;97611.66;;;12.13;61.06
30873;BME280;17579;42.690;2.586;2023-12-20T08:31:16;97631.66;;;12.08;60.94
30873;BME280;17579;42.690;2.586;2023-12-20T08:33:44;97619.53;;;12.05;60.97
30873;BME280;17579;42.690;2.586;2023-12-20T08:36:10;97630.41;;;12.02;61.13
30873;BME280;17579;42.690;2.586;2023-12-20T08:38:36;97645.63;;;12.00;61.21
30873;BME280;17579;42.690;2.586;2023-12-20T08:41:02;97639.78;;;11.96;61.37
30873;BME280;17579;42.690;2.586;2023-12-20T08:43:34;97632.53;;;11.89;60.83
30873;BME280;17579;42.690;2.586;2023-12-20T08:46:00;97613.00;;;11.90;61.18
30873;BME280;17579;42.690;2.586;2023-12-20T08:48:26;97629.06;;;11.88;61.12
30873;BME280;17579;42.690;2.586;2023-12-20T08:50:54;97626.53;;;11.87;61.31
30873;BME280;17579;42.690;2.586;2023-12-20T08:53:20;97638.13;;;11.86;61.17
30873;BME280;17579;42.690;2.586;2023-12-20T08:55:46;97640.06;;;11.84;61.39
30873;BME280;17579;42.690;2.586;2023-12-20T08:58:33;97645.34;;;11.84;61.52
30873;BME280;17579;42.690;2.586;2023-12-20T09:01:01;97647.19;;;11.83;61.60
30873;BME280;17579;42.690;2.586;2023-12-20T09:03:36;97652.78;;;11.80;61.66
30873;BME280;17579;42.690;2.586;2023-12-20T09:06:04;97641.34;;;11.79;61.54
30873;BME280;17579;42.690;2.586;2023-12-20T09:08:51;97644.69;;;11.72;61.20
30873;BME280;17579;42.690;2.586;2023-12-20T09:11:19;97646.09;;;11.76;61.73
30873;BME280;17579;42.690;2.586;2023-12-20T09:13:54;97659.63;;;11.73;61.74
30873;BME280;17579;42.690;2.586;2023-12-20T09:16:28;97657.13;;;11.71;61.38
30873;BME280;17579;42.690;2.586;2023-12-20T09:18:54;97665.91;;;11.72;61.20
30873;BME280;17579;42.690;2.586;2023-12-20T09:21:23;97664.94;;;11.73;61.35
30873;BME280;17579;42.690;2.586;2023-12-20T09:26:26;97680.25;;;11.69;61.27
30873;BME280;17579;42.690;2.586;2023-12-20T09:28:57;97682.38;;;11.66;61.46
30873;BME280;17579;42.690;2.586;2023-12-20T09:31:23;97694.91;;;11.64;61.50
30873;BME280;17579;42.690;2.586;2023-12-20T09:33:50;97719.19;;;11.59;61.75
30873;BME280;17579;42.690;2.586;2023-12-20T09:36:16;97728.13;;;11.58;61.47
30873;BME280;17579;42.690;2.586;2023-12-20T09:38:55;97728.22;;;11.56;61.42
30873;BME280;17579;42.690;2.586;2023-12-20T09:41:24;97748.47;;;11.57;61.41
30873;BME280;17579;42.690;2.586;2023-12-20T09:44:01;97751.53;;;11.53;61.10
30873;BME280;17579;42.690;2.586;2023-12-20T09:46:38;97745.41;;;11.52;61.01
30873;BME280;17579;42.690;2.586;2023-12-20T09:49:05;97741.91;;;11.52;61.87
30873;BME280;17579;42.690;2.586;2023-12-20T09:51:32;97738.56;;;11.50;61.41
30873;BME280;17579;42.690;2.586;2023-12-20T09:54:04;97729.78;;;11.49;61.55
30873;BME280;17579;42.690;2.586;2023-12-20T09:56:32;97767.00;;;11.48;61.69
30873;BME280;17579;42.690;2.586;2023-12-20T09:59:01;97768.97;;;11.46;61.42
30873;BME280;17579;42.690;2.586;2023-12-20T10:01:28;97774.25;;;11.46;61.27
30873;BME280;17579;42.690;2.586;2023-12-20T10:03:57;97769.25;;;11.42;61.17
30873;BME280;17579;42.690;2.586;2023-12-20T10:06:25;97768.81;;;11.37;60.81
30873;BME280;17579;42.690;2.586;2023-12-20T10:08:51;97772.56;;;11.35;61.20
30873;BME280;17579;42.690;2.586;2023-12-20T10:11:20;97780.09;;;11.30;60.66
30873;BME280;17579;42.690;2.586;2023-12-20T10:13:50;97785.81;;;11.25;60.76
30873;BME280;17579;42.690;2.586;2023-12-20T10:16:34;97798.72;;;11.18;60.50
30873;BME280;17579;42.690;2.586;2023-12-20T10:19:23;97787.00;;;11.11;60.58
30873;BME280;17579;42.690;2.586;2023-12-20T10:21:48;97810.84;;;11.11;60.49
30873;BME280;17579;42.690;2.586;2023-12-20T10:24:17;97793.41;;;11.08;60.32
30873;BME280;17579;42.690;2.586;2023-12-20T10:26:42;97798.84;;;11.07;60.42
30873;BME280;17579;42.690;2.586;2023-12-20T10:29:14;97784.19;;;11.03;60.71
30873;BME280;17579;42.690;2.586;2023-12-20T10:31:39;97780.84;;;11.01;60.68
30873;BME280;17579;42.690;2.586;2023-12-20T10:34:10;97758.28;;;10.97;60.52
30873;BME280;17579;42.690;2.586;2023-12-20T10:36:35;97764.41;;;10.97;60.15
30873;BME280;17579;42.690;2.586;2023-12-20T10:39:07;97772.75;;;10.92;59.90
30873;BME280;17579;42.690;2.586;2023-12-20T10:41:38;97754.22;;;10.92;59.65
30873;BME280;17579;42.690;2.586;2023-12-20T10:44:12;97730.25;;;10.94;59.74
30873;BME280;17579;42.690;2.586;2023-12-20T10:46:39;97734.72;;;10.94;58.98
30873;BME280;17579;42.690;2.586;2023-12-20T10:49:07;97743.94;;;10.99;59.10
30873;BME280;17579;42.690;2.586;2023-12-20T10:51:40;97737.13;;;11.06;58.81
30873;BME280;17579;42.690;2.586;2023-12-20T10:54:08;97732.09;;;11.13;58.39
30873;BME280;17579;42.690;2.586;2023-12-20T10:56:39;97721.28;;;11.16;57.68
30873;BME280;17579;42.690;2.586;2023-12-20T10:59:28;97728.22;;;11.27;57.53
30873;BME280;17579;42.690;2.586;2023-12-20T11:01:55;97706.22;;;11.26;57.24
30873;BME280;17579;42.690;2.586;2023-12-20T11:04:55;97709.25;;;11.22;56.92
30873;BME280;17579;42.690;2.586;2023-12-20T11:07:33;97703.72;;;11.25;56.82
30873;BME280;17579;42.690;2.586;2023-12-20T11:10:10;97694.63;;;11.27;57.09
30873;BME280;17579;42.690;2.586;2023-12-20T11:12:53;97681.00;;;11.32;56.52
30873;BME280;17579;42.690;2.586;2023-12-20T11:15:44;97649.38;;;11.31;56.17
30873;BME280;17579;42.690;2.586;2023-12-20T11:18:35;97674.16;;;11.20;56.52
30873;BME280;17579;42.690;2.586;2023-12-20T11:21:02;97647.25;;;11.24;56.00
30873;BME280;17579;42.690;2.586;2023-12-20T11:23:49;97680.84;;;11.14;56.35
30873;BME280;17579;42.690;2.586;2023-12-20T11:26:46;97684.19;;;11.16;56.66
30873;BME280;17579;42.690;2.586;2023-12-20T11:31:57;97683.19;;;11.07;56.18
30873;BME280;17579;42.690;2.586;2023-12-20T11:34:31;97672.19;;;11.02;56.70
30873;BME280;17579;42.690;2.586;2023-12-20T11:37:02;97672.47;;;10.99;56.46
30873;BME280;17579;42.690;2.586;2023-12-20T11:42:16;97636.94;;;10.92;57.39
30873;BME280;17579;42.690;2.586;2023-12-20T11:44:50;97630.97;;;11.09;58.31
30873;BME280;17579;42.690;2.586;2023-12-20T11:47:16;97627.91;;;11.34;57.89
30873;BME280;17579;42.690;2.586;2023-12-20T11:49:46;97613.78;;;11.53;57.72
30873;BME280;17579;42.690;2.586;2023-12-20T11:52:16;97624.63;;;11.69;56.68
30873;BME280;17579;42.690;2.586;2023-12-20T11:54:47;97621.66;;;11.82;56.54
30873;BME280;17579;42.690;2.586;2023-12-20T11:57:15;97593.88;;;11.96;55.87
30873;BME280;17579;42.690;2.586;2023-12-20T11:59:42;97596.94;;;12.01;55.23
30873;BME280;17579;42.690;2.586;2023-12-20T12:02:08;97606.00;;;12.08;55.08
30873;BME280;17579;42.690;2.586;2023-12-20T12:04:54;97588.09;;;12.10;54.77
30873;BME280;17579;42.690;2.586;2023-12-20T12:07:22;97618.34;;;12.18;54.34
30873;BME280;17579;42.690;2.586;2023-12-20T12:09:48;97619.44;;;12.25;54.23
30873;BME280;17579;42.690;2.586;2023-12-20T12:12:17;97611.91;;;12.30;54.05
30873;BME280;17579;42.690;2.586;2023-12-20T12:14:53;97611.59;;;12.33;53.69
30873;BME280;17579;42.690;2.586;2023-12-20T12:17:40;97589.66;;;12.31;53.30
30873;BME280;17579;42.690;2.586;2023-12-20T12:20:06;97588.69;;;12.32;52.24
30873;BME280;17579;42.690;2.586;2023-12-20T12:22:35;97569.31;;;12.32;52.25
30873;BME280;17579;42.690;2.586;2023-12-20T12:25:12;97520.59;;;12.33;51.71
30873;BME280;17579;42.690;2.586;2023-12-20T12:27:42;97495.72;;;12.34;50.28
30873;BME280;17579;42.690;2.586;2023-12-20T12:30:10;97514.28;;;12.34;49.96
30873;BME280;17579;42.690;2.586;2023-12-20T12:32:40;97493.06;;;12.34;49.01
30873;BME280;17579;42.690;2.586;2023-12-20T12:35:07;97489.94;;;12.38;48.20
30873;BME280;17579;42.690;2.586;2023-12-20T12:37:35;97463.16;;;12.41;48.04
30873;BME280;17579;42.690;2.586;2023-12-20T12:40:09;97488.00;;;12.40;48.01
30873;BME280;17579;42.690;2.586;2023-12-20T12:42:36;97514.06;;;12.45;46.89
30873;BME280;17579;42.690;2.586;2023-12-20T12:45:05;97493.31;;;12.40;47.67
30873;BME280;17579;42.690;2.586;2023-12-20T12:47:31;97507.16;;;12.52;46.91
30873;BME280;17579;42.690;2.586;2023-12-20T12:50:00;97518.47;;;12.54;46.43
30873;BME280;17579;42.690;2.586;2023-12-20T12:52:41;97522.13;;;12.53;45.53
30873;BME280;17579;42.690;2.586;2023-12-20T12:55:07;97502.78;;;12.61;45.78
30873;BME280;17579;42.690;2.586;2023-12-20T12:57:53;97519.75;;;12.68;45.42
30873;BME280;17579;42.690;2.586;2023-12-20T13:00:18;97552.81;;;12.74;45.56
30873;BME280;17579;42.690;2.586;2023-12-20T13:02:48;97548.56;;;12.81;46.18
30873;BME280;17579;42.690;2.586;2023-12-20T13:05:13;97537.06;;;12.90;45.30
30873;BME280;17579;42.690;2.586;2023-12-20T13:07:41;97570.56;;;12.91;44.55
30873;BME280;17579;42.690;2.586;2023-12-20T13:13:06;97555.63;;;13.08;44.62
30873;BME280;17579;42.690;2.586;2023-12-20T13:15:31;97552.66;;;13.11;44.30
30873;BME280;17579;42.690;2.586;2023-12-20T13:17:59;97560.09;;;13.08;44.43
30873;BME280;17579;42.690;2.586;2023-12-20T13:20:25;97560.44;;;13.13;44.11
30873;BME280;17579;42.690;2.586;2023-12-20T13:22:51;97564.63;;;13.15;44.05
30873;BME280;17579;42.690;2.586;2023-12-20T13:25:24;97549.69;;;13.14;44.16
30873;BME280;17579;42.690;2.586;2023-12-20T13:27:58;97575.97;;;13.17;44.08
30873;BME280;17579;42.690;2.586;2023-12-20T13:30:31;97549.91;;;13.21;43.96
30873;BME280;17579;42.690;2.586;2023-12-20T13:33:27;97574.66;;;13.22;43.45
30873;BME280;17579;42.690;2.586;2023-12-20T13:35:54;97583.38;;;13.32;42.84
30873;BME280;17579;42.690;2.586;2023-12-20T13:38:21;97595.81;;;13.31;43.77
30873;BME280;17579;42.690;2.586;2023-12-20T13:40:46;97603.38;;;13.36;44.54
30873;BME280;17579;42.690;2.586;2023-12-20T13:43:12;97620.63;;;13.40;44.77